sensor_id;sensor_type;location;lat;lon;timestamp;P1;durP1;ratioP1;P2;durP2;ratioP2
47545;SDS011;50104;52.002;4.688;2022-10-22T00:00:30;9.23;;;3.33;;
47545;SDS011;50104;52.002;4.688;2022-10-22T00:05:31;5.18;;;3.03;;
47545;SDS011;50104;52.002;4.688;2022-10-22T00:10:32;8.15;;;3.28;;
47545;SDS011;50104;52.002;4.688;2022-10-22T00:15:33;9.68;;;3.13;;
47545;SDS011;50104;52.002;4.688;2022-10-22T00:20:33;8.60;;;3.38;;
47545;SDS011;50104;52.002;4.688;2022-10-22T00:25:34;5.75;;;2.90;;
47545;SDS011;50104;52.002;4.688;2022-10-22T00:30:35;5.80;;;3.35;;
47545;SDS011;50104;52.002;4.688;2022-10-22T00:35:36;4.97;;;3.00;;
47545;SDS011;50104;52.002;4.688;2022-10-22T00:40:37;6.53;;;3.00;;
47545;SDS011;50104;52.002;4.688;2022-10-22T00:45:38;10.85;;;3.72;;
47545;SDS011;50104;52.002;4.688;2022-10-22T00:50:43;5.18;;;3.17;;
47545;SDS011;50104;52.002;4.688;2022-10-22T00:56:02;4.95;;;3.13;;
47545;SDS011;50104;52.002;4.688;2022-10-22T01:01:04;5.93;;;3.08;;
47545;SDS011;50104;52.002;4.688;2022-10-22T01:06:09;7.72;;;3.38;;
47545;SDS011;50104;52.002;4.688;2022-10-22T01:22:13;8.85;;;3.15;;
47545;SDS011;50104;52.002;4.688;2022-10-22T01:27:50;8.27;;;3.10;;
47545;SDS011;50104;52.002;4.688;2022-10-22T01:33:05;4.95;;;2.72;;
47545;SDS011;50104;52.002;4.688;2022-10-22T01:38:10;7.35;;;3.25;;
47545;SDS011;50104;52.002;4.688;2022-10-22T01:43:15;4.47;;;2.60;;
47545;SDS011;50104;52.002;4.688;2022-10-22T01:48:28;5.53;;;2.60;;
47545;SDS011;50104;52.002;4.688;2022-10-22T01:53:44;6.75;;;2.80;;
47545;SDS011;50104;52.002;4.688;2022-10-22T01:59:03;8.52;;;2.97;;
47545;SDS011;50104;52.002;4.688;2022-10-22T02:04:32;6.38;;;2.72;;
47545;SDS011;50104;52.002;4.688;2022-10-22T02:09:46;6.25;;;2.58;;
47545;SDS011;50104;52.002;4.688;2022-10-22T02:14:49;9.10;;;3.00;;
47545;SDS011;50104;52.002;4.688;2022-10-22T02:19:55;5.60;;;2.72;;
47545;SDS011;50104;52.002;4.688;2022-10-22T02:25:01;6.70;;;2.90;;
47545;SDS011;50104;52.002;4.688;2022-10-22T02:30:19;7.43;;;2.78;;
47545;SDS011;50104;52.002;4.688;2022-10-22T02:35:22;6.50;;;3.03;;
47545;SDS011;50104;52.002;4.688;2022-10-22T02:40:25;7.75;;;2.78;;
47545;SDS011;50104;52.002;4.688;2022-10-22T02:45:27;6.63;;;2.83;;
47545;SDS011;50104;52.002;4.688;2022-10-22T02:50:28;3.72;;;2.63;;
47545;SDS011;50104;52.002;4.688;2022-10-22T02:55:29;5.50;;;2.60;;
47545;SDS011;50104;52.002;4.688;2022-10-22T03:00:30;10.35;;;3.47;;
47545;SDS011;50104;52.002;4.688;2022-10-22T03:05:31;5.47;;;2.47;;
47545;SDS011;50104;52.002;4.688;2022-10-22T03:10:31;7.35;;;2.55;;
47545;SDS011;50104;52.002;4.688;2022-10-22T03:15:32;7.22;;;2.78;;
47545;SDS011;50104;52.002;4.688;2022-10-22T03:20:33;3.95;;;2.53;;
47545;SDS011;50104;52.002;4.688;2022-10-22T03:25:34;8.90;;;2.88;;
47545;SDS011;50104;52.002;4.688;2022-10-22T03:30:35;7.13;;;2.13;;
47545;SDS011;50104;52.002;4.688;2022-10-22T03:35:38;8.25;;;2.65;;
47545;SDS011;50104;52.002;4.688;2022-10-22T03:40:43;10.88;;;3.50;;
47545;SDS011;50104;52.002;4.688;2022-10-22T03:45:45;10.10;;;3.22;;
47545;SDS011;50104;52.002;4.688;2022-10-22T03:50:46;7.90;;;2.83;;
47545;SDS011;50104;52.002;4.688;2022-10-22T03:55:47;8.95;;;2.60;;
47545;SDS011;50104;52.002;4.688;2022-10-22T04:00:48;7.18;;;2.40;;
47545;SDS011;50104;52.002;4.688;2022-10-22T04:05:48;4.43;;;2.13;;
47545;SDS011;50104;52.002;4.688;2022-10-22T04:10:49;10.95;;;2.92;;
47545;SDS011;50104;52.002;4.688;2022-10-22T04:15:51;8.55;;;3.88;;
47545;SDS011;50104;52.002;4.688;2022-10-22T04:20:52;9.05;;;2.63;;
47545;SDS011;50104;52.002;4.688;2022-10-22T04:25:59;6.50;;;2.63;;
47545;SDS011;50104;52.002;4.688;2022-10-22T04:31:08;5.70;;;2.38;;
47545;SDS011;50104;52.002;4.688;2022-10-22T04:36:12;9.32;;;2.50;;
47545;SDS011;50104;52.002;4.688;2022-10-22T04:41:17;12.75;;;2.47;;
47545;SDS011;50104;52.002;4.688;2022-10-22T04:46:21;16.65;;;3.10;;
47545;SDS011;50104;52.002;4.688;2022-10-22T04:51:24;12.05;;;3.17;;
47545;SDS011;50104;52.002;4.688;2022-10-22T04:56:29;9.07;;;2.78;;
47545;SDS011;50104;52.002;4.688;2022-10-22T05:01:32;6.65;;;2.60;;
47545;SDS011;50104;52.002;4.688;2022-10-22T05:06:38;5.03;;;2.78;;
47545;SDS011;50104;52.002;4.688;2022-10-22T05:11:39;6.32;;;2.90;;
47545;SDS011;50104;52.002;4.688;2022-10-22T05:16:44;6.03;;;2.80;;
47545;SDS011;50104;52.002;4.688;2022-10-22T05:21:46;9.73;;;3.22;;
47545;SDS011;50104;52.002;4.688;2022-10-22T05:26:48;9.85;;;2.67;;
47545;SDS011;50104;52.002;4.688;2022-10-22T05:31:50;7.00;;;2.83;;
47545;SDS011;50104;52.002;4.688;2022-10-22T05:36:51;9.43;;;2.80;;
47545;SDS011;50104;52.002;4.688;2022-10-22T05:41:51;6.28;;;2.30;;
47545;SDS011;50104;52.002;4.688;2022-10-22T05:46:53;7.72;;;2.47;;
47545;SDS011;50104;52.002;4.688;2022-10-22T05:51:53;5.50;;;2.33;;
47545;SDS011;50104;52.002;4.688;2022-10-22T05:56:54;4.47;;;2.15;;
47545;SDS011;50104;52.002;4.688;2022-10-22T06:01:55;7.63;;;2.10;;
47545;SDS011;50104;52.002;4.688;2022-10-22T06:06:56;14.77;;;2.85;;
47545;SDS011;50104;52.002;4.688;2022-10-22T06:11:57;9.55;;;2.60;;
47545;SDS011;50104;52.002;4.688;2022-10-22T06:16:58;6.60;;;3.00;;
47545;SDS011;50104;52.002;4.688;2022-10-22T06:21:59;8.32;;;2.25;;
47545;SDS011;50104;52.002;4.688;2022-10-22T06:27:00;7.93;;;2.78;;
47545;SDS011;50104;52.002;4.688;2022-10-22T06:32:01;7.90;;;2.58;;
47545;SDS011;50104;52.002;4.688;2022-10-22T06:37:02;4.50;;;1.83;;
47545;SDS011;50104;52.002;4.688;2022-10-22T06:42:02;8.15;;;2.47;;
47545;SDS011;50104;52.002;4.688;2022-10-22T06:47:03;11.15;;;2.13;;
47545;SDS011;50104;52.002;4.688;2022-10-22T06:52:04;6.97;;;2.72;;
47545;SDS011;50104;52.002;4.688;2022-10-22T06:57:05;12.63;;;2.60;;
47545;SDS011;50104;52.002;4.688;2022-10-22T07:02:07;9.10;;;2.10;;
47545;SDS011;50104;52.002;4.688;2022-10-22T07:07:09;11.90;;;2.60;;
47545;SDS011;50104;52.002;4.688;2022-10-22T07:12:10;8.95;;;2.10;;
47545;SDS011;50104;52.002;4.688;2022-10-22T07:17:11;9.77;;;2.50;;
47545;SDS011;50104;52.002;4.688;2022-10-22T07:22:12;6.50;;;2.15;;
47545;SDS011;50104;52.002;4.688;2022-10-22T07:27:13;7.72;;;2.05;;
47545;SDS011;50104;52.002;4.688;2022-10-22T07:32:13;5.22;;;1.98;;
47545;SDS011;50104;52.002;4.688;2022-10-22T07:37:14;9.80;;;2.92;;
47545;SDS011;50104;52.002;4.688;2022-10-22T07:42:15;5.13;;;2.10;;
47545;SDS011;50104;52.002;4.688;2022-10-22T07:47:16;4.93;;;1.95;;
47545;SDS011;50104;52.002;4.688;2022-10-22T07:52:16;8.45;;;2.10;;
47545;SDS011;50104;52.002;4.688;2022-10-22T07:57:17;10.45;;;2.08;;
47545;SDS011;50104;52.002;4.688;2022-10-22T08:02:18;10.25;;;1.85;;
47545;SDS011;50104;52.002;4.688;2022-10-22T08:07:19;10.85;;;1.95;;
47545;SDS011;50104;52.002;4.688;2022-10-22T08:12:20;8.23;;;1.95;;
47545;SDS011;50104;52.002;4.688;2022-10-22T08:17:20;9.68;;;2.17;;
47545;SDS011;50104;52.002;4.688;2022-10-22T08:22:21;7.00;;;1.80;;
47545;SDS011;50104;52.002;4.688;2022-10-22T08:27:22;9.38;;;1.98;;
47545;SDS011;50104;52.002;4.688;2022-10-22T08:32:23;9.52;;;1.55;;
47545;SDS011;50104;52.002;4.688;2022-10-22T08:37:24;8.80;;;1.73;;
47545;SDS011;50104;52.002;4.688;2022-10-22T08:53:16;10.45;;;2.00;;
47545;SDS011;50104;52.002;4.688;2022-10-22T09:03:49;9.07;;;2.08;;
47545;SDS011;50104;52.002;4.688;2022-10-22T09:09:31;8.23;;;2.67;;
47545;SDS011;50104;52.002;4.688;2022-10-22T09:14:38;6.22;;;2.08;;
47545;SDS011;50104;52.002;4.688;2022-10-22T09:19:40;7.18;;;2.50;;
47545;SDS011;50104;52.002;4.688;2022-10-22T09:24:51;5.93;;;2.08;;
47545;SDS011;50104;52.002;4.688;2022-10-22T09:29:59;6.65;;;2.03;;
47545;SDS011;50104;52.002;4.688;2022-10-22T09:35:00;7.22;;;2.03;;
47545;SDS011;50104;52.002;4.688;2022-10-22T09:40:03;8.68;;;2.35;;
47545;SDS011;50104;52.002;4.688;2022-10-22T09:45:04;5.63;;;1.80;;
47545;SDS011;50104;52.002;4.688;2022-10-22T09:50:25;5.68;;;1.70;;
47545;SDS011;50104;52.002;4.688;2022-10-22T09:55:42;5.85;;;1.85;;
47545;SDS011;50104;52.002;4.688;2022-10-22T10:00:45;3.70;;;1.45;;
47545;SDS011;50104;52.002;4.688;2022-10-22T10:38:13;10.32;;;1.73;;
47545;SDS011;50104;52.002;4.688;2022-10-22T10:44:05;6.57;;;2.35;;
47545;SDS011;50104;52.002;4.688;2022-10-22T10:49:14;9.60;;;1.52;;
47545;SDS011;50104;52.002;4.688;2022-10-22T11:10:22;5.25;;;1.38;;
47545;SDS011;50104;52.002;4.688;2022-10-22T11:15:32;12.02;;;2.28;;
47545;SDS011;50104;52.002;4.688;2022-10-22T11:26:12;11.00;;;1.80;;
47545;SDS011;50104;52.002;4.688;2022-10-22T11:31:47;8.60;;;1.58;;
47545;SDS011;50104;52.002;4.688;2022-10-22T11:36:50;9.45;;;2.00;;
47545;SDS011;50104;52.002;4.688;2022-10-22T11:41:52;5.30;;;1.88;;
47545;SDS011;50104;52.002;4.688;2022-10-22T11:46:55;9.43;;;1.52;;
47545;SDS011;50104;52.002;4.688;2022-10-22T11:58:22;6.00;;;2.10;;
47545;SDS011;50104;52.002;4.688;2022-10-22T12:08:32;8.43;;;2.05;;
47545;SDS011;50104;52.002;4.688;2022-10-22T12:24:42;12.90;;;2.42;;
47545;SDS011;50104;52.002;4.688;2022-10-22T12:29:53;6.47;;;1.90;;
47545;SDS011;50104;52.002;4.688;2022-10-22T12:34:56;10.65;;;2.65;;
47545;SDS011;50104;52.002;4.688;2022-10-22T12:39:57;10.77;;;2.00;;
47545;SDS011;50104;52.002;4.688;2022-10-22T12:44:57;8.98;;;2.10;;
47545;SDS011;50104;52.002;4.688;2022-10-22T12:49:58;12.60;;;3.10;;
47545;SDS011;50104;52.002;4.688;2022-10-22T12:55:03;8.88;;;2.20;;
47545;SDS011;50104;52.002;4.688;2022-10-22T13:00:18;13.02;;;1.90;;
47545;SDS011;50104;52.002;4.688;2022-10-22T13:05:23;11.82;;;2.38;;
47545;SDS011;50104;52.002;4.688;2022-10-22T13:10:30;13.15;;;1.75;;
47545;SDS011;50104;52.002;4.688;2022-10-22T13:15:35;9.05;;;2.20;;
47545;SDS011;50104;52.002;4.688;2022-10-22T13:20:48;12.75;;;1.67;;
47545;SDS011;50104;52.002;4.688;2022-10-22T13:26:11;10.43;;;2.20;;
47545;SDS011;50104;52.002;4.688;2022-10-22T13:31:22;11.60;;;1.88;;
47545;SDS011;50104;52.002;4.688;2022-10-22T13:36:32;12.25;;;1.85;;
47545;SDS011;50104;52.002;4.688;2022-10-22T13:41:36;8.93;;;1.33;;
47545;SDS011;50104;52.002;4.688;2022-10-22T13:46:38;13.57;;;1.67;;
47545;SDS011;50104;52.002;4.688;2022-10-22T13:51:41;9.20;;;1.75;;
47545;SDS011;50104;52.002;4.688;2022-10-22T13:56:43;6.30;;;1.27;;
47545;SDS011;50104;52.002;4.688;2022-10-22T14:01:44;5.53;;;1.30;;
47545;SDS011;50104;52.002;4.688;2022-10-22T14:06:45;7.53;;;1.48;;
47545;SDS011;50104;52.002;4.688;2022-10-22T14:11:46;14.27;;;2.28;;
47545;SDS011;50104;52.002;4.688;2022-10-22T14:16:47;12.65;;;2.78;;
47545;SDS011;50104;52.002;4.688;2022-10-22T14:21:47;9.38;;;1.40;;
47545;SDS011;50104;52.002;4.688;2022-10-22T14:26:48;14.20;;;3.58;;
47545;SDS011;50104;52.002;4.688;2022-10-22T14:31:49;12.90;;;3.10;;
47545;SDS011;50104;52.002;4.688;2022-10-22T14:36:50;8.82;;;1.90;;
47545;SDS011;50104;52.002;4.688;2022-10-22T14:41:51;7.72;;;1.63;;
47545;SDS011;50104;52.002;4.688;2022-10-22T14:46:52;8.10;;;1.90;;
47545;SDS011;50104;52.002;4.688;2022-10-22T14:51:55;9.50;;;2.55;;
47545;SDS011;50104;52.002;4.688;2022-10-22T14:56:56;9.10;;;1.83;;
47545;SDS011;50104;52.002;4.688;2022-10-22T15:01:56;10.40;;;1.90;;
47545;SDS011;50104;52.002;4.688;2022-10-22T15:06:57;11.15;;;2.03;;
47545;SDS011;50104;52.002;4.688;2022-10-22T15:11:58;9.60;;;1.42;;
47545;SDS011;50104;52.002;4.688;2022-10-22T15:16:59;9.65;;;1.90;;
47545;SDS011;50104;52.002;4.688;2022-10-22T15:21:59;10.75;;;2.42;;
47545;SDS011;50104;52.002;4.688;2022-10-22T15:27:00;10.82;;;1.70;;
47545;SDS011;50104;52.002;4.688;2022-10-22T15:32:02;9.88;;;2.78;;
47545;SDS011;50104;52.002;4.688;2022-10-22T15:37:04;10.20;;;1.75;;
47545;SDS011;50104;52.002;4.688;2022-10-22T15:42:08;5.53;;;1.55;;
47545;SDS011;50104;52.002;4.688;2022-10-22T15:47:09;11.70;;;2.17;;
47545;SDS011;50104;52.002;4.688;2022-10-22T15:52:10;9.77;;;2.28;;
47545;SDS011;50104;52.002;4.688;2022-10-22T15:57:11;9.13;;;2.10;;
47545;SDS011;50104;52.002;4.688;2022-10-22T16:02:12;10.15;;;1.75;;
47545;SDS011;50104;52.002;4.688;2022-10-22T16:07:14;5.68;;;1.63;;
47545;SDS011;50104;52.002;4.688;2022-10-22T16:12:15;10.30;;;1.75;;
47545;SDS011;50104;52.002;4.688;2022-10-22T16:17:16;8.40;;;1.73;;
47545;SDS011;50104;52.002;4.688;2022-10-22T16:22:17;13.50;;;2.05;;
47545;SDS011;50104;52.002;4.688;2022-10-22T16:27:18;8.70;;;2.22;;
47545;SDS011;50104;52.002;4.688;2022-10-22T16:32:19;7.55;;;1.70;;
47545;SDS011;50104;52.002;4.688;2022-10-22T16:37:20;8.02;;;2.00;;
47545;SDS011;50104;52.002;4.688;2022-10-22T16:42:20;12.07;;;2.67;;
47545;SDS011;50104;52.002;4.688;2022-10-22T16:47:21;21.15;;;10.23;;
47545;SDS011;50104;52.002;4.688;2022-10-22T16:52:22;16.40;;;7.45;;
47545;SDS011;50104;52.002;4.688;2022-10-22T16:57:23;14.00;;;3.90;;
47545;SDS011;50104;52.002;4.688;2022-10-22T17:02:24;8.10;;;2.63;;
47545;SDS011;50104;52.002;4.688;2022-10-22T17:07:25;6.13;;;1.98;;
47545;SDS011;50104;52.002;4.688;2022-10-22T17:12:26;8.75;;;2.40;;
47545;SDS011;50104;52.002;4.688;2022-10-22T17:17:27;37.00;;;21.33;;
47545;SDS011;50104;52.002;4.688;2022-10-22T17:22:28;8.50;;;4.80;;
47545;SDS011;50104;52.002;4.688;2022-10-22T17:27:29;12.15;;;4.72;;
47545;SDS011;50104;52.002;4.688;2022-10-22T17:32:34;12.43;;;4.47;;
47545;SDS011;50104;52.002;4.688;2022-10-22T17:37:37;8.50;;;3.70;;
47545;SDS011;50104;52.002;4.688;2022-10-22T17:42:40;13.55;;;3.90;;
47545;SDS011;50104;52.002;4.688;2022-10-22T17:47:41;8.65;;;3.97;;
47545;SDS011;50104;52.002;4.688;2022-10-22T17:52:42;13.82;;;4.70;;
47545;SDS011;50104;52.002;4.688;2022-10-22T17:57:43;10.32;;;3.83;;
47545;SDS011;50104;52.002;4.688;2022-10-22T18:02:44;10.65;;;4.50;;
47545;SDS011;50104;52.002;4.688;2022-10-22T18:07:45;8.52;;;5.10;;
47545;SDS011;50104;52.002;4.688;2022-10-22T18:12:46;9.77;;;4.85;;
47545;SDS011;50104;52.002;4.688;2022-10-22T18:17:48;14.68;;;4.75;;
47545;SDS011;50104;52.002;4.688;2022-10-22T18:22:49;9.65;;;3.97;;
47545;SDS011;50104;52.002;4.688;2022-10-22T18:27:52;11.07;;;4.43;;
47545;SDS011;50104;52.002;4.688;2022-10-22T18:32:53;7.82;;;4.63;;
47545;SDS011;50104;52.002;4.688;2022-10-22T18:37:54;9.38;;;5.15;;
47545;SDS011;50104;52.002;4.688;2022-10-22T18:42:55;10.63;;;5.45;;
47545;SDS011;50104;52.002;4.688;2022-10-22T18:47:56;13.88;;;5.07;;
47545;SDS011;50104;52.002;4.688;2022-10-22T18:52:59;10.23;;;5.53;;
47545;SDS011;50104;52.002;4.688;2022-10-22T18:58:00;8.52;;;5.40;;
47545;SDS011;50104;52.002;4.688;2022-10-22T19:03:01;13.50;;;5.88;;
47545;SDS011;50104;52.002;4.688;2022-10-22T19:08:03;13.50;;;7.32;;
47545;SDS011;50104;52.002;4.688;2022-10-22T19:13:04;15.40;;;6.28;;
47545;SDS011;50104;52.002;4.688;2022-10-22T19:18:05;13.05;;;7.00;;
47545;SDS011;50104;52.002;4.688;2022-10-22T19:23:06;11.98;;;6.32;;
47545;SDS011;50104;52.002;4.688;2022-10-22T19:28:07;11.55;;;6.45;;
47545;SDS011;50104;52.002;4.688;2022-10-22T19:33:07;12.18;;;6.30;;
47545;SDS011;50104;52.002;4.688;2022-10-22T19:38:08;9.30;;;6.10;;
47545;SDS011;50104;52.002;4.688;2022-10-22T19:43:09;13.38;;;6.55;;
47545;SDS011;50104;52.002;4.688;2022-10-22T19:48:10;9.98;;;6.68;;
47545;SDS011;50104;52.002;4.688;2022-10-22T19:53:11;11.40;;;6.25;;
47545;SDS011;50104;52.002;4.688;2022-10-22T19:58:12;11.63;;;7.28;;
47545;SDS011;50104;52.002;4.688;2022-10-22T20:03:14;11.00;;;7.13;;
47545;SDS011;50104;52.002;4.688;2022-10-22T20:08:15;13.02;;;7.32;;
47545;SDS011;50104;52.002;4.688;2022-10-22T20:13:16;15.60;;;8.45;;
47545;SDS011;50104;52.002;4.688;2022-10-22T20:18:17;12.60;;;7.93;;
47545;SDS011;50104;52.002;4.688;2022-10-22T20:23:19;14.18;;;8.07;;
47545;SDS011;50104;52.002;4.688;2022-10-22T20:28:19;15.50;;;8.20;;
47545;SDS011;50104;52.002;4.688;2022-10-22T20:33:23;16.13;;;8.43;;
47545;SDS011;50104;52.002;4.688;2022-10-22T20:38:30;14.20;;;8.30;;
47545;SDS011;50104;52.002;4.688;2022-10-22T20:43:31;10.23;;;7.68;;
47545;SDS011;50104;52.002;4.688;2022-10-22T20:48:32;10.68;;;7.75;;
47545;SDS011;50104;52.002;4.688;2022-10-22T20:53:33;12.48;;;8.77;;
47545;SDS011;50104;52.002;4.688;2022-10-22T20:58:34;13.40;;;8.52;;
47545;SDS011;50104;52.002;4.688;2022-10-22T21:03:36;13.13;;;8.70;;
47545;SDS011;50104;52.002;4.688;2022-10-22T21:08:37;14.40;;;7.72;;
47545;SDS011;50104;52.002;4.688;2022-10-22T21:13:37;13.88;;;7.72;;
47545;SDS011;50104;52.002;4.688;2022-10-22T21:18:38;13.63;;;7.88;;
47545;SDS011;50104;52.002;4.688;2022-10-22T21:23:41;12.15;;;7.95;;
47545;SDS011;50104;52.002;4.688;2022-10-22T21:28:42;12.27;;;8.10;;
47545;SDS011;50104;52.002;4.688;2022-10-22T21:33:43;14.10;;;8.27;;
47545;SDS011;50104;52.002;4.688;2022-10-22T21:38:44;14.95;;;9.25;;
47545;SDS011;50104;52.002;4.688;2022-10-22T21:43:46;12.18;;;8.30;;
47545;SDS011;50104;52.002;4.688;2022-10-22T21:48:52;12.68;;;8.75;;
47545;SDS011;50104;52.002;4.688;2022-10-22T21:53:58;13.52;;;8.60;;
47545;SDS011;50104;52.002;4.688;2022-10-22T21:58:59;13.13;;;8.63;;
47545;SDS011;50104;52.002;4.688;2022-10-22T22:04:05;11.77;;;8.32;;
47545;SDS011;50104;52.002;4.688;2022-10-22T22:09:06;12.13;;;9.60;;
47545;SDS011;50104;52.002;4.688;2022-10-22T22:14:06;11.80;;;8.05;;
47545;SDS011;50104;52.002;4.688;2022-10-22T22:19:08;12.20;;;8.20;;
47545;SDS011;50104;52.002;4.688;2022-10-22T22:24:09;16.60;;;8.80;;
47545;SDS011;50104;52.002;4.688;2022-10-22T22:29:11;12.25;;;8.40;;
47545;SDS011;50104;52.002;4.688;2022-10-22T22:34:13;13.20;;;9.05;;
47545;SDS011;50104;52.002;4.688;2022-10-22T22:39:16;15.00;;;8.07;;
47545;SDS011;50104;52.002;4.688;2022-10-22T22:44:20;12.77;;;9.05;;
47545;SDS011;50104;52.002;4.688;2022-10-22T22:49:21;13.18;;;8.80;;
47545;SDS011;50104;52.002;4.688;2022-10-22T22:54:22;13.98;;;8.13;;
47545;SDS011;50104;52.002;4.688;2022-10-22T22:59:22;14.55;;;8.55;;
47545;SDS011;50104;52.002;4.688;2022-10-22T23:04:23;11.75;;;8.27;;
47545;SDS011;50104;52.002;4.688;2022-10-22T23:09:24;11.90;;;9.23;;
47545;SDS011;50104;52.002;4.688;2022-10-22T23:14:25;17.90;;;8.32;;
47545;SDS011;50104;52.002;4.688;2022-10-22T23:19:25;15.45;;;8.25;;
47545;SDS011;50104;52.002;4.688;2022-10-22T23:24:27;13.57;;;8.38;;
47545;SDS011;50104;52.002;4.688;2022-10-22T23:29:29;11.20;;;8.70;;
47545;SDS011;50104;52.002;4.688;2022-10-22T23:34:33;12.90;;;8.05;;
47545;SDS011;50104;52.002;4.688;2022-10-22T23:39:33;9.68;;;7.32;;
47545;SDS011;50104;52.002;4.688;2022-10-22T23:44:34;14.98;;;8.13;;
47545;SDS011;50104;52.002;4.688;2022-10-22T23:49:36;11.30;;;8.43;;
47545;SDS011;50104;52.002;4.688;2022-10-22T23:54:37;11.00;;;8.20;;
47545;SDS011;50104;52.002;4.688;2022-10-22T23:59:37;14.32;;;8.07;;
